»·PEaware :: N16RD KCRQ-KSNA

N16RD :: KCRQ-KSNA

FLIGHT INFORMATION

Flight Status: Arrived
Operator: Privately registered:
United States
More flights under this callsign
Pilot: Brett B. (12105)
Aircraft: PIPER PA-38 TOMAHAWK
(PA38)
More flights by this aircraft type
Origin: KCRQ McClellan-Palomar
United States
Destination: KSNA John Wayne-Orange Co
United States
More flights between these airports :: More routes between these airports
Route: +KCRQ KSNA
File this flight plan on PilotEdge
Remarks:
Altitude:
(Current/Filed)
2,500ft
Speed:
(Current/Filed)
135kts
Departed: 18-Sep-17 09:25 PM
Arrived: 18-Sep-17 09:53 PM
Distance/Time
Traveled:
44nm/0:27
Distance/Time
To Go:
Arrived

Flight Plot

Page will automatically refresh every two minutes.


Map Options




Map Legend


Flown Route
Filed Route
Departure Airport
Arrival Airport
Navaid (VOR, NDB)
Fix

Horizontal Profiles

Position Reports

Time Latitude Longitude Heading Altitude Ground
Speed
18-Sep-17 21:00 33.128957 -117.283490 168 303ft 0kts
18-Sep-17 21:01 33.128957 -117.283490 168 303ft 0kts
18-Sep-17 21:02 33.128957 -117.283490 168 303ft 0kts
18-Sep-17 21:03 33.128957 -117.283490 168 303ft 0kts
18-Sep-17 21:04 33.128957 -117.283490 168 303ft 0kts
18-Sep-17 21:05 33.128957 -117.283490 168 303ft 0kts
18-Sep-17 21:06 33.128957 -117.283490 168 303ft 0kts
18-Sep-17 21:07 33.128957 -117.283490 168 303ft 0kts
18-Sep-17 21:08 33.128957 -117.283490 168 303ft 0kts
18-Sep-17 21:09 33.128957 -117.283490 168 305ft 0kts
18-Sep-17 21:10 33.128957 -117.283490 168 305ft 0kts
18-Sep-17 21:11 33.128957 -117.283490 168 305ft 0kts
18-Sep-17 21:12 33.128957 -117.283490 168 305ft 0kts
18-Sep-17 21:13 33.128957 -117.283490 168 305ft 0kts
18-Sep-17 21:14 33.128957 -117.283490 168 305ft 0kts
18-Sep-17 21:15 33.128957 -117.283490 168 305ft 0kts
18-Sep-17 21:16 33.128957 -117.283490 168 305ft 0kts
18-Sep-17 21:17 33.128957 -117.283490 168 305ft 0kts
18-Sep-17 21:18 33.128957 -117.283490 168 305ft 0kts
18-Sep-17 21:19 33.128957 -117.283490 168 305ft 0kts
18-Sep-17 21:20 33.128957 -117.283490 168 305ft 0kts
18-Sep-17 21:21 33.128957 -117.283490 168 305ft 0kts
18-Sep-17 21:22 33.128957 -117.283490 168 305ft 0kts
18-Sep-17 21:23 33.128957 -117.283490 168 305ft 0kts
18-Sep-17 21:24 33.128957 -117.283490 168 305ft 0kts
18-Sep-17 21:25 33.128944 -117.280932 79 305ft 15kts
18-Sep-17 21:26 33.129930 -117.274799 78 305ft 19kts
18-Sep-17 21:27 33.130216 -117.272542 156 305ft 0kts
18-Sep-17 21:28 33.129437 -117.272599 257 305ft 8kts
18-Sep-17 21:29 33.124876 -117.293801 265 866ft 94kts
18-Sep-17 21:30 33.140528 -117.322525 314 1471ft 118kts
18-Sep-17 21:31 33.162851 -117.351771 313 1993ft 117kts
18-Sep-17 21:32 33.185203 -117.379909 313 2079ft 134kts
18-Sep-17 21:33 33.210730 -117.412192 313 1998ft 130kts
18-Sep-17 21:34 33.235693 -117.443783 313 1999ft 132kts
18-Sep-17 21:35 33.261025 -117.475831 313 1999ft 132kts
18-Sep-17 21:36 33.287957 -117.505428 332 2002ft 132kts
18-Sep-17 21:37 33.317635 -117.522946 333 2494ft 116kts
18-Sep-17 21:38 33.350297 -117.541824 333 2296ft 133kts
18-Sep-17 21:39 33.382535 -117.560744 333 2299ft 127kts
18-Sep-17 21:40 33.414222 -117.579348 333 2299ft 127kts
18-Sep-17 21:41 33.447350 -117.598845 333 2301ft 136kts
18-Sep-17 21:42 33.481587 -117.619024 333 2300ft 137kts
18-Sep-17 21:43 33.512254 -117.641727 316 2505ft 122kts
18-Sep-17 21:44 33.536621 -117.671901 312 2543ft 126kts
18-Sep-17 21:45 33.561694 -117.701903 314 2588ft 129kts
18-Sep-17 21:46 33.587369 -117.733049 313 2598ft 134kts
18-Sep-17 21:47 33.611598 -117.766663 307 2232ft 132kts
18-Sep-17 21:48 33.633361 -117.800942 306 1720ft 126kts
18-Sep-17 21:49 33.654121 -117.833269 307 1202ft 115kts
18-Sep-17 21:50 33.679200 -117.854244 1 581ft 106kts
18-Sep-17 21:51 33.694515 -117.859350 193 299ft 86kts
18-Sep-17 21:52 33.667443 -117.870684 157 722ft 97kts
18-Sep-17 21:53 33.672150 -117.846142 38 1152ft 100kts
18-Sep-17 21:54 33.694686 -117.828949 348 1320ft 86kts
18-Sep-17 21:55 33.701560 -117.845305 236 1228ft 79kts
18-Sep-17 21:56 33.683799 -117.861833 208 146ft 65kts
18-Sep-17 21:57 33.676878 -117.865689 118 61ft 0kts
18-Sep-17 21:58 33.679422 -117.863627 62 61ft 9kts
18-Sep-17 21:59 33.679114 -117.862441 117 61ft 0kts
18-Sep-17 22:00 33.679114 -117.862441 117 61ft 0kts
18-Sep-17 22:01 33.679114 -117.862441 117 61ft 0kts
18-Sep-17 22:02 33.679114 -117.862441 117 61ft 0kts
18-Sep-17 22:03 33.679114 -117.862441 117 61ft 0kts
18-Sep-17 22:04 33.679114 -117.862441 117 61ft 0kts
18-Sep-17 22:05 33.679114 -117.862441 117 61ft 0kts
18-Sep-17 22:06 33.679114 -117.862441 117 61ft 0kts
18-Sep-17 22:07 33.679114 -117.862441 117 61ft 0kts
18-Sep-17 22:08 33.679114 -117.862441 117 61ft 0kts
18-Sep-17 22:09 33.679114 -117.862441 117 61ft 0kts
18-Sep-17 22:10 33.679114 -117.862441 117 61ft 0kts
18-Sep-17 22:11 33.679114 -117.862441 117 61ft 0kts

Navigation Log

Ident Type
Flight plan parsing failed, navigation log unavailable